sensor_id;sensor_type;location;lat;lon;timestamp;P1;durP1;ratioP1;P2;durP2;ratioP2
75044;SDS011;63614;56.026;35.960;2022-11-20T00:00:54;21.45;;;8.07;;
75044;SDS011;63614;56.026;35.960;2022-11-20T00:03:20;13.50;;;7.53;;
75044;SDS011;63614;56.026;35.960;2022-11-20T00:05:47;13.27;;;7.55;;
75044;SDS011;63614;56.026;35.960;2022-11-20T00:08:13;9.63;;;6.40;;
75044;SDS011;63614;56.026;35.960;2022-11-20T00:10:39;12.10;;;7.50;;
75044;SDS011;63614;56.026;35.960;2022-11-20T00:13:05;14.77;;;7.20;;
75044;SDS011;63614;56.026;35.960;2022-11-20T00:15:33;11.70;;;7.10;;
75044;SDS011;63614;56.026;35.960;2022-11-20T00:17:59;14.52;;;7.93;;
75044;SDS011;63614;56.026;35.960;2022-11-20T00:20:25;10.18;;;7.07;;
75044;SDS011;63614;56.026;35.960;2022-11-20T00:22:51;12.77;;;7.68;;
75044;SDS011;63614;56.026;35.960;2022-11-20T00:25:17;10.77;;;7.65;;
75044;SDS011;63614;56.026;35.960;2022-11-20T00:27:43;9.90;;;5.90;;
75044;SDS011;63614;56.026;35.960;2022-11-20T00:30:09;12.00;;;7.25;;
75044;SDS011;63614;56.026;35.960;2022-11-20T00:32:35;11.18;;;7.03;;
75044;SDS011;63614;56.026;35.960;2022-11-20T00:35:00;13.02;;;7.28;;
75044;SDS011;63614;56.026;35.960;2022-11-20T00:37:28;13.10;;;6.70;;
75044;SDS011;63614;56.026;35.960;2022-11-20T00:39:54;10.63;;;6.57;;
75044;SDS011;63614;56.026;35.960;2022-11-20T00:42:20;11.23;;;6.70;;
75044;SDS011;63614;56.026;35.960;2022-11-20T00:44:46;9.52;;;6.72;;
75044;SDS011;63614;56.026;35.960;2022-11-20T00:47:12;14.95;;;7.70;;
75044;SDS011;63614;56.026;35.960;2022-11-20T00:49:37;10.43;;;6.68;;
75044;SDS011;63614;56.026;35.960;2022-11-20T00:52:04;11.02;;;7.03;;
75044;SDS011;63614;56.026;35.960;2022-11-20T00:54:29;10.35;;;6.97;;
75044;SDS011;63614;56.026;35.960;2022-11-20T00:56:55;10.63;;;6.65;;
75044;SDS011;63614;56.026;35.960;2022-11-20T00:59:21;12.20;;;7.05;;
75044;SDS011;63614;56.026;35.960;2022-11-20T01:01:47;12.88;;;7.32;;
75044;SDS011;63614;56.026;35.960;2022-11-20T01:04:13;10.80;;;7.13;;
75044;SDS011;63614;56.026;35.960;2022-11-20T01:06:39;11.23;;;6.90;;
75044;SDS011;63614;56.026;35.960;2022-11-20T01:09:11;10.77;;;6.63;;
75044;SDS011;63614;56.026;35.960;2022-11-20T01:11:40;15.30;;;7.03;;
75044;SDS011;63614;56.026;35.960;2022-11-20T01:14:10;10.43;;;6.47;;
75044;SDS011;63614;56.026;35.960;2022-11-20T01:16:42;10.05;;;6.82;;
75044;SDS011;63614;56.026;35.960;2022-11-20T01:19:17;14.45;;;7.03;;
75044;SDS011;63614;56.026;35.960;2022-11-20T01:21:47;8.65;;;6.25;;
75044;SDS011;63614;56.026;35.960;2022-11-20T01:24:19;11.60;;;6.75;;
75044;SDS011;63614;56.026;35.960;2022-11-20T01:26:47;9.98;;;6.68;;
75044;SDS011;63614;56.026;35.960;2022-11-20T01:29:16;13.00;;;6.85;;
75044;SDS011;63614;56.026;35.960;2022-11-20T01:31:44;11.15;;;6.82;;
75044;SDS011;63614;56.026;35.960;2022-11-20T01:34:11;13.73;;;5.90;;
75044;SDS011;63614;56.026;35.960;2022-11-20T01:36:39;10.18;;;6.30;;
75044;SDS011;63614;56.026;35.960;2022-11-20T01:39:07;10.53;;;6.47;;
75044;SDS011;63614;56.026;35.960;2022-11-20T01:41:38;10.73;;;6.30;;
75044;SDS011;63614;56.026;35.960;2022-11-20T01:44:41;11.23;;;6.20;;
75044;SDS011;63614;56.026;35.960;2022-11-20T01:49:58;8.43;;;5.65;;
75044;SDS011;63614;56.026;35.960;2022-11-20T01:52:34;9.93;;;6.82;;
75044;SDS011;63614;56.026;35.960;2022-11-20T01:57:34;9.18;;;6.03;;
75044;SDS011;63614;56.026;35.960;2022-11-20T02:00:05;9.57;;;5.80;;
75044;SDS011;63614;56.026;35.960;2022-11-20T02:02:43;9.70;;;6.53;;
75044;SDS011;63614;56.026;35.960;2022-11-20T02:07:59;15.02;;;7.82;;
75044;SDS011;63614;56.026;35.960;2022-11-20T02:10:26;11.45;;;6.55;;
75044;SDS011;63614;56.026;35.960;2022-11-20T02:12:53;13.45;;;7.47;;
75044;SDS011;63614;56.026;35.960;2022-11-20T02:15:40;13.32;;;7.60;;
75044;SDS011;63614;56.026;35.960;2022-11-20T02:18:06;9.02;;;6.28;;
75044;SDS011;63614;56.026;35.960;2022-11-20T02:20:32;9.23;;;6.10;;
75044;SDS011;63614;56.026;35.960;2022-11-20T02:23:05;10.32;;;5.82;;
75044;SDS011;63614;56.026;35.960;2022-11-20T02:25:44;10.98;;;6.28;;
75044;SDS011;63614;56.026;35.960;2022-11-20T02:28:12;11.30;;;6.30;;
75044;SDS011;63614;56.026;35.960;2022-11-20T02:30:39;9.05;;;6.00;;
75044;SDS011;63614;56.026;35.960;2022-11-20T02:33:04;8.20;;;5.47;;
75044;SDS011;63614;56.026;35.960;2022-11-20T02:37:58;8.73;;;5.60;;
75044;SDS011;63614;56.026;35.960;2022-11-20T02:40:26;8.40;;;5.70;;
75044;SDS011;63614;56.026;35.960;2022-11-20T02:42:53;9.65;;;6.10;;
75044;SDS011;63614;56.026;35.960;2022-11-20T02:45:19;9.70;;;5.47;;
75044;SDS011;63614;56.026;35.960;2022-11-20T02:47:45;9.05;;;5.38;;
75044;SDS011;63614;56.026;35.960;2022-11-20T02:50:11;10.73;;;5.88;;
75044;SDS011;63614;56.026;35.960;2022-11-20T02:52:37;8.27;;;5.38;;
75044;SDS011;63614;56.026;35.960;2022-11-20T02:55:03;10.00;;;6.20;;
75044;SDS011;63614;56.026;35.960;2022-11-20T02:57:29;9.88;;;6.32;;
75044;SDS011;63614;56.026;35.960;2022-11-20T02:59:55;10.02;;;5.00;;
75044;SDS011;63614;56.026;35.960;2022-11-20T03:02:21;10.02;;;5.38;;
75044;SDS011;63614;56.026;35.960;2022-11-20T03:04:47;8.82;;;5.50;;
75044;SDS011;63614;56.026;35.960;2022-11-20T03:07:13;9.60;;;5.93;;
75044;SDS011;63614;56.026;35.960;2022-11-20T03:09:39;11.35;;;5.70;;
75044;SDS011;63614;56.026;35.960;2022-11-20T03:12:05;8.98;;;5.18;;
75044;SDS011;63614;56.026;35.960;2022-11-20T03:14:31;8.70;;;5.20;;
75044;SDS011;63614;56.026;35.960;2022-11-20T03:16:57;9.93;;;5.38;;
75044;SDS011;63614;56.026;35.960;2022-11-20T03:19:23;8.10;;;5.43;;
75044;SDS011;63614;56.026;35.960;2022-11-20T03:21:48;8.45;;;5.20;;
75044;SDS011;63614;56.026;35.960;2022-11-20T03:24:14;6.90;;;4.60;;
75044;SDS011;63614;56.026;35.960;2022-11-20T03:26:40;7.72;;;4.70;;
75044;SDS011;63614;56.026;35.960;2022-11-20T03:29:06;9.98;;;5.10;;
75044;SDS011;63614;56.026;35.960;2022-11-20T03:31:33;8.32;;;5.20;;
75044;SDS011;63614;56.026;35.960;2022-11-20T03:34:07;6.75;;;4.65;;
75044;SDS011;63614;56.026;35.960;2022-11-20T03:36:37;8.95;;;4.65;;
75044;SDS011;63614;56.026;35.960;2022-11-20T03:39:07;8.43;;;4.80;;
75044;SDS011;63614;56.026;35.960;2022-11-20T03:41:37;7.60;;;4.95;;
75044;SDS011;63614;56.026;35.960;2022-11-20T03:44:05;8.10;;;4.53;;
75044;SDS011;63614;56.026;35.960;2022-11-20T03:46:33;9.23;;;5.50;;
75044;SDS011;63614;56.026;35.960;2022-11-20T03:48:59;9.45;;;5.25;;
75044;SDS011;63614;56.026;35.960;2022-11-20T03:51:26;9.25;;;5.30;;
75044;SDS011;63614;56.026;35.960;2022-11-20T03:53:57;8.82;;;5.40;;
75044;SDS011;63614;56.026;35.960;2022-11-20T03:56:35;9.50;;;5.55;;
75044;SDS011;63614;56.026;35.960;2022-11-20T03:59:03;7.38;;;5.25;;
75044;SDS011;63614;56.026;35.960;2022-11-20T04:01:31;9.97;;;5.63;;
75044;SDS011;63614;56.026;35.960;2022-11-20T04:03:59;9.23;;;5.00;;
75044;SDS011;63614;56.026;35.960;2022-11-20T04:06:43;8.32;;;5.25;;
75044;SDS011;63614;56.026;35.960;2022-11-20T04:09:09;9.93;;;6.60;;
75044;SDS011;63614;56.026;35.960;2022-11-20T04:11:36;11.27;;;5.75;;
75044;SDS011;63614;56.026;35.960;2022-11-20T04:14:05;8.45;;;5.75;;
75044;SDS011;63614;56.026;35.960;2022-11-20T04:16:35;10.43;;;6.03;;
75044;SDS011;63614;56.026;35.960;2022-11-20T04:19:02;10.65;;;5.82;;
75044;SDS011;63614;56.026;35.960;2022-11-20T04:21:30;11.82;;;5.97;;
75044;SDS011;63614;56.026;35.960;2022-11-20T04:23:56;12.27;;;6.70;;
75044;SDS011;63614;56.026;35.960;2022-11-20T04:26:23;9.23;;;6.18;;
75044;SDS011;63614;56.026;35.960;2022-11-20T04:28:50;9.30;;;5.55;;
75044;SDS011;63614;56.026;35.960;2022-11-20T04:31:18;11.60;;;5.90;;
75044;SDS011;63614;56.026;35.960;2022-11-20T04:33:48;9.95;;;5.93;;
75044;SDS011;63614;56.026;35.960;2022-11-20T04:36:18;17.83;;;6.32;;
75044;SDS011;63614;56.026;35.960;2022-11-20T04:38:46;9.98;;;6.00;;
75044;SDS011;63614;56.026;35.960;2022-11-20T04:41:17;10.75;;;6.18;;
75044;SDS011;63614;56.026;35.960;2022-11-20T04:43:51;9.88;;;6.20;;
75044;SDS011;63614;56.026;35.960;2022-11-20T04:46:18;10.80;;;6.72;;
75044;SDS011;63614;56.026;35.960;2022-11-20T04:48:46;11.07;;;6.82;;
75044;SDS011;63614;56.026;35.960;2022-11-20T04:51:12;8.97;;;6.27;;
75044;SDS011;63614;56.026;35.960;2022-11-20T04:53:39;12.50;;;6.50;;
75044;SDS011;63614;56.026;35.960;2022-11-20T04:56:06;9.98;;;5.45;;
75044;SDS011;63614;56.026;35.960;2022-11-20T04:58:33;10.95;;;6.70;;
75044;SDS011;63614;56.026;35.960;2022-11-20T05:01:03;10.75;;;6.60;;
75044;SDS011;63614;56.026;35.960;2022-11-20T05:03:31;11.25;;;7.05;;
75044;SDS011;63614;56.026;35.960;2022-11-20T05:06:00;12.23;;;7.05;;
75044;SDS011;63614;56.026;35.960;2022-11-20T05:08:27;14.90;;;7.45;;
75044;SDS011;63614;56.026;35.960;2022-11-20T05:10:53;14.00;;;7.10;;
75044;SDS011;63614;56.026;35.960;2022-11-20T05:13:19;10.45;;;6.43;;
75044;SDS011;63614;56.026;35.960;2022-11-20T05:15:45;10.80;;;6.85;;
75044;SDS011;63614;56.026;35.960;2022-11-20T05:18:10;11.40;;;7.30;;
75044;SDS011;63614;56.026;35.960;2022-11-20T05:20:36;10.73;;;6.80;;
75044;SDS011;63614;56.026;35.960;2022-11-20T05:23:02;12.73;;;7.28;;
75044;SDS011;63614;56.026;35.960;2022-11-20T05:25:28;10.68;;;7.18;;
75044;SDS011;63614;56.026;35.960;2022-11-20T05:27:54;11.38;;;7.15;;
75044;SDS011;63614;56.026;35.960;2022-11-20T05:30:19;14.57;;;7.13;;
75044;SDS011;63614;56.026;35.960;2022-11-20T05:32:45;11.35;;;7.05;;
75044;SDS011;63614;56.026;35.960;2022-11-20T05:35:11;11.93;;;7.32;;
75044;SDS011;63614;56.026;35.960;2022-11-20T05:37:37;12.15;;;7.65;;
75044;SDS011;63614;56.026;35.960;2022-11-20T05:40:03;16.00;;;7.80;;
75044;SDS011;63614;56.026;35.960;2022-11-20T05:42:32;12.23;;;7.70;;
75044;SDS011;63614;56.026;35.960;2022-11-20T05:44:58;15.35;;;10.02;;
75044;SDS011;63614;56.026;35.960;2022-11-20T05:47:33;17.45;;;10.15;;
75044;SDS011;63614;56.026;35.960;2022-11-20T05:50:00;16.80;;;10.27;;
75044;SDS011;63614;56.026;35.960;2022-11-20T05:52:29;15.35;;;8.05;;
75044;SDS011;63614;56.026;35.960;2022-11-20T05:54:56;16.45;;;8.93;;
75044;SDS011;63614;56.026;35.960;2022-11-20T05:57:22;11.32;;;7.80;;
75044;SDS011;63614;56.026;35.960;2022-11-20T05:59:48;12.55;;;8.23;;
75044;SDS011;63614;56.026;35.960;2022-11-20T06:02:13;14.45;;;8.90;;
75044;SDS011;63614;56.026;35.960;2022-11-20T06:04:39;14.60;;;8.57;;
75044;SDS011;63614;56.026;35.960;2022-11-20T06:07:05;14.07;;;8.85;;
75044;SDS011;63614;56.026;35.960;2022-11-20T06:09:31;16.17;;;9.48;;
75044;SDS011;63614;56.026;35.960;2022-11-20T06:11:58;14.52;;;8.82;;
75044;SDS011;63614;56.026;35.960;2022-11-20T06:14:24;14.85;;;9.15;;
75044;SDS011;63614;56.026;35.960;2022-11-20T06:16:50;19.15;;;9.45;;
75044;SDS011;63614;56.026;35.960;2022-11-20T06:19:16;17.23;;;9.65;;
75044;SDS011;63614;56.026;35.960;2022-11-20T06:21:42;11.82;;;7.90;;
75044;SDS011;63614;56.026;35.960;2022-11-20T06:24:10;16.75;;;8.90;;
75044;SDS011;63614;56.026;35.960;2022-11-20T06:26:36;17.95;;;9.80;;
75044;SDS011;63614;56.026;35.960;2022-11-20T06:29:02;16.17;;;9.45;;
75044;SDS011;63614;56.026;35.960;2022-11-20T06:31:29;15.45;;;9.63;;
75044;SDS011;63614;56.026;35.960;2022-11-20T06:33:58;17.00;;;9.80;;
75044;SDS011;63614;56.026;35.960;2022-11-20T06:36:23;15.20;;;9.85;;
75044;SDS011;63614;56.026;35.960;2022-11-20T06:38:50;19.35;;;9.50;;
75044;SDS011;63614;56.026;35.960;2022-11-20T06:41:17;19.05;;;9.38;;
75044;SDS011;63614;56.026;35.960;2022-11-20T06:43:45;21.42;;;9.90;;
75044;SDS011;63614;56.026;35.960;2022-11-20T06:46:11;16.58;;;10.27;;
75044;SDS011;63614;56.026;35.960;2022-11-20T06:48:38;14.65;;;9.63;;
75044;SDS011;63614;56.026;35.960;2022-11-20T06:51:05;18.10;;;9.77;;
75044;SDS011;63614;56.026;35.960;2022-11-20T06:53:32;15.82;;;9.02;;
75044;SDS011;63614;56.026;35.960;2022-11-20T06:55:59;18.85;;;11.77;;
75044;SDS011;63614;56.026;35.960;2022-11-20T06:58:29;19.33;;;10.55;;
75044;SDS011;63614;56.026;35.960;2022-11-20T07:00:59;19.42;;;11.85;;
75044;SDS011;63614;56.026;35.960;2022-11-20T07:03:26;19.23;;;10.88;;
75044;SDS011;63614;56.026;35.960;2022-11-20T07:05:56;17.08;;;9.73;;
75044;SDS011;63614;56.026;35.960;2022-11-20T07:08:22;16.05;;;10.20;;
75044;SDS011;63614;56.026;35.960;2022-11-20T07:10:49;14.73;;;9.50;;
75044;SDS011;63614;56.026;35.960;2022-11-20T07:13:15;25.88;;;14.38;;
75044;SDS011;63614;56.026;35.960;2022-11-20T07:15:40;20.15;;;10.90;;
75044;SDS011;63614;56.026;35.960;2022-11-20T07:18:06;16.85;;;9.75;;
75044;SDS011;63614;56.026;35.960;2022-11-20T07:20:32;19.40;;;10.10;;
75044;SDS011;63614;56.026;35.960;2022-11-20T07:22:58;14.65;;;9.15;;
75044;SDS011;63614;56.026;35.960;2022-11-20T07:25:25;19.65;;;9.60;;
75044;SDS011;63614;56.026;35.960;2022-11-20T07:27:52;15.98;;;9.27;;
75044;SDS011;63614;56.026;35.960;2022-11-20T07:30:18;17.35;;;8.88;;
75044;SDS011;63614;56.026;35.960;2022-11-20T07:32:50;19.67;;;10.10;;
75044;SDS011;63614;56.026;35.960;2022-11-20T07:35:17;21.42;;;10.90;;
75044;SDS011;63614;56.026;35.960;2022-11-20T07:37:44;19.00;;;9.57;;
75044;SDS011;63614;56.026;35.960;2022-11-20T07:40:14;18.85;;;10.02;;
75044;SDS011;63614;56.026;35.960;2022-11-20T07:42:47;20.00;;;10.10;;
75044;SDS011;63614;56.026;35.960;2022-11-20T07:45:20;24.00;;;12.35;;
75044;SDS011;63614;56.026;35.960;2022-11-20T07:47:47;25.88;;;11.13;;
75044;SDS011;63614;56.026;35.960;2022-11-20T07:50:14;15.98;;;9.50;;
75044;SDS011;63614;56.026;35.960;2022-11-20T07:52:40;16.02;;;9.48;;
75044;SDS011;63614;56.026;35.960;2022-11-20T07:55:06;18.17;;;9.57;;
75044;SDS011;63614;56.026;35.960;2022-11-20T07:57:33;19.02;;;9.13;;
75044;SDS011;63614;56.026;35.960;2022-11-20T07:59:59;24.70;;;10.85;;
75044;SDS011;63614;56.026;35.960;2022-11-20T08:02:25;19.30;;;10.00;;
75044;SDS011;63614;56.026;35.960;2022-11-20T08:04:51;19.00;;;9.60;;
75044;SDS011;63614;56.026;35.960;2022-11-20T08:07:17;19.65;;;10.60;;
75044;SDS011;63614;56.026;35.960;2022-11-20T08:09:42;21.08;;;10.13;;
75044;SDS011;63614;56.026;35.960;2022-11-20T08:12:10;30.05;;;12.45;;
75044;SDS011;63614;56.026;35.960;2022-11-20T08:15:02;26.33;;;11.43;;
75044;SDS011;63614;56.026;35.960;2022-11-20T08:17:29;21.95;;;11.80;;
75044;SDS011;63614;56.026;35.960;2022-11-20T08:19:55;19.83;;;11.02;;
75044;SDS011;63614;56.026;35.960;2022-11-20T08:22:21;20.65;;;10.80;;
75044;SDS011;63614;56.026;35.960;2022-11-20T08:24:47;20.83;;;10.98;;
75044;SDS011;63614;56.026;35.960;2022-11-20T08:27:13;18.67;;;10.73;;
75044;SDS011;63614;56.026;35.960;2022-11-20T08:29:39;22.10;;;12.00;;
75044;SDS011;63614;56.026;35.960;2022-11-20T08:32:05;18.70;;;11.32;;
75044;SDS011;63614;56.026;35.960;2022-11-20T08:34:31;23.08;;;11.65;;
75044;SDS011;63614;56.026;35.960;2022-11-20T08:36:57;22.45;;;13.13;;
75044;SDS011;63614;56.026;35.960;2022-11-20T08:39:23;20.92;;;11.90;;
75044;SDS011;63614;56.026;35.960;2022-11-20T08:41:49;22.98;;;12.15;;
75044;SDS011;63614;56.026;35.960;2022-11-20T08:44:15;19.67;;;12.73;;
75044;SDS011;63614;56.026;35.960;2022-11-20T08:46:41;22.48;;;11.77;;
75044;SDS011;63614;56.026;35.960;2022-11-20T08:51:36;20.52;;;11.18;;
75044;SDS011;63614;56.026;35.960;2022-11-20T08:54:03;19.70;;;10.93;;
75044;SDS011;63614;56.026;35.960;2022-11-20T08:56:30;18.27;;;11.10;;
75044;SDS011;63614;56.026;35.960;2022-11-20T08:58:57;23.23;;;11.10;;
75044;SDS011;63614;56.026;35.960;2022-11-20T09:01:25;20.13;;;11.35;;
75044;SDS011;63614;56.026;35.960;2022-11-20T09:03:51;19.40;;;10.90;;
75044;SDS011;63614;56.026;35.960;2022-11-20T09:06:17;23.23;;;11.40;;
75044;SDS011;63614;56.026;35.960;2022-11-20T09:08:43;23.38;;;11.80;;
75044;SDS011;63614;56.026;35.960;2022-11-20T09:11:10;21.20;;;11.65;;
75044;SDS011;63614;56.026;35.960;2022-11-20T09:13:36;21.30;;;11.45;;
75044;SDS011;63614;56.026;35.960;2022-11-20T09:16:06;22.20;;;11.45;;
75044;SDS011;63614;56.026;35.960;2022-11-20T09:18:33;23.33;;;12.02;;
75044;SDS011;63614;56.026;35.960;2022-11-20T09:21:05;24.75;;;13.43;;
75044;SDS011;63614;56.026;35.960;2022-11-20T09:23:33;18.55;;;11.50;;
75044;SDS011;63614;56.026;35.960;2022-11-20T09:26:01;19.13;;;11.00;;
75044;SDS011;63614;56.026;35.960;2022-11-20T09:28:29;22.05;;;9.98;;
75044;SDS011;63614;56.026;35.960;2022-11-20T09:30:55;18.88;;;10.07;;
75044;SDS011;63614;56.026;35.960;2022-11-20T09:33:21;18.38;;;9.35;;
75044;SDS011;63614;56.026;35.960;2022-11-20T09:35:47;22.10;;;10.15;;
75044;SDS011;63614;56.026;35.960;2022-11-20T09:38:13;15.75;;;9.25;;
75044;SDS011;63614;56.026;35.960;2022-11-20T09:41:15;15.93;;;9.82;;
75044;SDS011;63614;56.026;35.960;2022-11-20T09:43:45;16.55;;;9.57;;
75044;SDS011;63614;56.026;35.960;2022-11-20T09:51:58;20.48;;;10.75;;
75044;SDS011;63614;56.026;35.960;2022-11-20T09:54:31;18.30;;;10.32;;
75044;SDS011;63614;56.026;35.960;2022-11-20T09:57:23;18.30;;;11.02;;
75044;SDS011;63614;56.026;35.960;2022-11-20T09:59:52;17.92;;;10.15;;
75044;SDS011;63614;56.026;35.960;2022-11-20T10:13:47;30.67;;;16.55;;
75044;SDS011;63614;56.026;35.960;2022-11-20T10:29:33;18.90;;;10.65;;
75044;SDS011;63614;56.026;35.960;2022-11-20T10:32:03;20.50;;;11.95;;
75044;SDS011;63614;56.026;35.960;2022-11-20T10:34:39;19.25;;;10.77;;
75044;SDS011;63614;56.026;35.960;2022-11-20T10:37:19;20.00;;;11.55;;
75044;SDS011;63614;56.026;35.960;2022-11-20T10:47:49;17.92;;;10.50;;
75044;SDS011;63614;56.026;35.960;2022-11-20T10:50:18;20.15;;;10.73;;
75044;SDS011;63614;56.026;35.960;2022-11-20T10:55:24;20.30;;;11.07;;
75044;SDS011;63614;56.026;35.960;2022-11-20T11:01:05;22.75;;;11.73;;
75044;SDS011;63614;56.026;35.960;2022-11-20T11:03:38;20.23;;;10.98;;
75044;SDS011;63614;56.026;35.960;2022-11-20T11:06:18;23.17;;;11.75;;
75044;SDS011;63614;56.026;35.960;2022-11-20T11:08:49;22.08;;;10.90;;
75044;SDS011;63614;56.026;35.960;2022-11-20T11:11:22;22.98;;;12.25;;
75044;SDS011;63614;56.026;35.960;2022-11-20T11:13:51;21.52;;;12.95;;
75044;SDS011;63614;56.026;35.960;2022-11-20T11:16:21;21.48;;;12.35;;
75044;SDS011;63614;56.026;35.960;2022-11-20T11:18:49;21.77;;;12.07;;
75044;SDS011;63614;56.026;35.960;2022-11-20T11:21:25;23.90;;;12.32;;
75044;SDS011;63614;56.026;35.960;2022-11-20T11:24:26;25.65;;;12.85;;
75044;SDS011;63614;56.026;35.960;2022-11-20T11:27:11;21.48;;;12.18;;
75044;SDS011;63614;56.026;35.960;2022-11-20T11:29:38;24.08;;;12.15;;
75044;SDS011;63614;56.026;35.960;2022-11-20T11:32:07;24.73;;;11.48;;
75044;SDS011;63614;56.026;35.960;2022-11-20T11:34:37;22.85;;;11.77;;
75044;SDS011;63614;56.026;35.960;2022-11-20T11:37:03;22.60;;;12.55;;
75044;SDS011;63614;56.026;35.960;2022-11-20T11:39:41;22.30;;;12.15;;
75044;SDS011;63614;56.026;35.960;2022-11-20T11:42:11;23.17;;;12.45;;
75044;SDS011;63614;56.026;35.960;2022-11-20T11:44:43;24.17;;;12.18;;
75044;SDS011;63614;56.026;35.960;2022-11-20T11:58:51;20.13;;;11.48;;
75044;SDS011;63614;56.026;35.960;2022-11-20T12:01:24;19.77;;;11.90;;
75044;SDS011;63614;56.026;35.960;2022-11-20T12:04:13;22.38;;;11.15;;
75044;SDS011;63614;56.026;35.960;2022-11-20T12:06:48;23.25;;;11.23;;
75044;SDS011;63614;56.026;35.960;2022-11-20T12:09:20;23.45;;;10.05;;
75044;SDS011;63614;56.026;35.960;2022-11-20T12:11:58;15.63;;;8.85;;
75044;SDS011;63614;56.026;35.960;2022-11-20T12:17:01;14.23;;;7.53;;
75044;SDS011;63614;56.026;35.960;2022-11-20T12:19:31;15.57;;;8.45;;
75044;SDS011;63614;56.026;35.960;2022-11-20T12:25:09;14.98;;;9.02;;
75044;SDS011;63614;56.026;35.960;2022-11-20T12:30:20;15.70;;;8.50;;
75044;SDS011;63614;56.026;35.960;2022-11-20T12:35:35;13.13;;;8.68;;
75044;SDS011;63614;56.026;35.960;2022-11-20T12:52:47;13.32;;;7.93;;
75044;SDS011;63614;56.026;35.960;2022-11-20T12:58:05;12.63;;;8.15;;
75044;SDS011;63614;56.026;35.960;2022-11-20T13:00:39;17.15;;;8.98;;
75044;SDS011;63614;56.026;35.960;2022-11-20T13:03:23;19.92;;;11.02;;
75044;SDS011;63614;56.026;35.960;2022-11-20T13:06:10;17.92;;;9.77;;
75044;SDS011;63614;56.026;35.960;2022-11-20T13:08:38;17.60;;;9.73;;
75044;SDS011;63614;56.026;35.960;2022-11-20T13:11:10;19.33;;;9.38;;
75044;SDS011;63614;56.026;35.960;2022-11-20T13:14:00;17.88;;;9.55;;
75044;SDS011;63614;56.026;35.960;2022-11-20T13:19:03;15.80;;;9.40;;
75044;SDS011;63614;56.026;35.960;2022-11-20T13:29:40;17.38;;;10.15;;
75044;SDS011;63614;56.026;35.960;2022-11-20T13:34:39;14.18;;;8.98;;
75044;SDS011;63614;56.026;35.960;2022-11-20T13:37:26;16.35;;;7.78;;
75044;SDS011;63614;56.026;35.960;2022-11-20T13:42:37;15.57;;;9.38;;
75044;SDS011;63614;56.026;35.960;2022-11-20T13:45:21;12.68;;;8.10;;
75044;SDS011;63614;56.026;35.960;2022-11-20T13:47:51;14.40;;;8.20;;
75044;SDS011;63614;56.026;35.960;2022-11-20T13:50:18;16.52;;;8.57;;
75044;SDS011;63614;56.026;35.960;2022-11-20T13:55:47;16.27;;;9.93;;
75044;SDS011;63614;56.026;35.960;2022-11-20T14:01:20;17.13;;;9.68;;
75044;SDS011;63614;56.026;35.960;2022-11-20T14:03:49;15.88;;;8.85;;
75044;SDS011;63614;56.026;35.960;2022-11-20T14:06:27;16.02;;;9.07;;
75044;SDS011;63614;56.026;35.960;2022-11-20T14:08:56;14.75;;;9.38;;
75044;SDS011;63614;56.026;35.960;2022-11-20T14:11:25;16.08;;;9.00;;
75044;SDS011;63614;56.026;35.960;2022-11-20T14:13:53;17.35;;;9.98;;
75044;SDS011;63614;56.026;35.960;2022-11-20T14:16:30;14.80;;;9.35;;
75044;SDS011;63614;56.026;35.960;2022-11-20T14:19:17;17.27;;;8.80;;
75044;SDS011;63614;56.026;35.960;2022-11-20T14:21:45;15.35;;;8.98;;
75044;SDS011;63614;56.026;35.960;2022-11-20T14:24:18;15.60;;;8.73;;
75044;SDS011;63614;56.026;35.960;2022-11-20T14:26:49;14.38;;;8.60;;
75044;SDS011;63614;56.026;35.960;2022-11-20T14:31:47;14.35;;;8.45;;
75044;SDS011;63614;56.026;35.960;2022-11-20T14:34:35;13.80;;;8.07;;
75044;SDS011;63614;56.026;35.960;2022-11-20T14:37:06;14.93;;;8.37;;
75044;SDS011;63614;56.026;35.960;2022-11-20T14:39:40;14.00;;;8.93;;
75044;SDS011;63614;56.026;35.960;2022-11-20T14:42:17;15.63;;;9.30;;
75044;SDS011;63614;56.026;35.960;2022-11-20T14:44:48;15.57;;;9.82;;
75044;SDS011;63614;56.026;35.960;2022-11-20T14:47:19;15.77;;;9.00;;
75044;SDS011;63614;56.026;35.960;2022-11-20T14:49:49;15.57;;;9.07;;
75044;SDS011;63614;56.026;35.960;2022-11-20T14:52:18;16.98;;;9.30;;
75044;SDS011;63614;56.026;35.960;2022-11-20T14:54:47;16.10;;;8.70;;
75044;SDS011;63614;56.026;35.960;2022-11-20T14:57:27;15.88;;;9.85;;
75044;SDS011;63614;56.026;35.960;2022-11-20T15:02:44;13.32;;;7.68;;
75044;SDS011;63614;56.026;35.960;2022-11-20T15:05:13;16.45;;;9.82;;
75044;SDS011;63614;56.026;35.960;2022-11-20T15:07:41;14.85;;;9.07;;
75044;SDS011;63614;56.026;35.960;2022-11-20T15:12:49;11.82;;;7.80;;
75044;SDS011;63614;56.026;35.960;2022-11-20T15:15:30;14.13;;;8.23;;
75044;SDS011;63614;56.026;35.960;2022-11-20T15:18:14;20.80;;;8.50;;
75044;SDS011;63614;56.026;35.960;2022-11-20T15:20:45;14.95;;;8.35;;
75044;SDS011;63614;56.026;35.960;2022-11-20T15:23:12;14.10;;;8.55;;
75044;SDS011;63614;56.026;35.960;2022-11-20T15:25:39;15.95;;;8.48;;
75044;SDS011;63614;56.026;35.960;2022-11-20T15:28:20;18.48;;;9.95;;
75044;SDS011;63614;56.026;35.960;2022-11-20T15:30:56;15.65;;;9.80;;
75044;SDS011;63614;56.026;35.960;2022-11-20T15:33:22;18.38;;;10.70;;
75044;SDS011;63614;56.026;35.960;2022-11-20T15:35:48;17.25;;;9.40;;
75044;SDS011;63614;56.026;35.960;2022-11-20T15:38:14;15.05;;;9.40;;
75044;SDS011;63614;56.026;35.960;2022-11-20T15:40:40;17.42;;;10.13;;
75044;SDS011;63614;56.026;35.960;2022-11-20T15:43:06;16.17;;;8.60;;
75044;SDS011;63614;56.026;35.960;2022-11-20T15:48:13;14.32;;;8.77;;
75044;SDS011;63614;56.026;35.960;2022-11-20T15:50:44;14.02;;;8.00;;
75044;SDS011;63614;56.026;35.960;2022-11-20T15:53:21;12.63;;;7.32;;
75044;SDS011;63614;56.026;35.960;2022-11-20T15:55:47;13.32;;;7.57;;
75044;SDS011;63614;56.026;35.960;2022-11-20T15:58:13;13.95;;;9.40;;
75044;SDS011;63614;56.026;35.960;2022-11-20T16:00:39;15.02;;;8.93;;
75044;SDS011;63614;56.026;35.960;2022-11-20T16:03:05;12.13;;;7.07;;
75044;SDS011;63614;56.026;35.960;2022-11-20T16:05:31;14.43;;;8.40;;
75044;SDS011;63614;56.026;35.960;2022-11-20T16:07:59;14.68;;;8.55;;
75044;SDS011;63614;56.026;35.960;2022-11-20T16:10:27;14.50;;;7.87;;
75044;SDS011;63614;56.026;35.960;2022-11-20T16:12:52;12.63;;;7.10;;
75044;SDS011;63614;56.026;35.960;2022-11-20T16:15:37;11.38;;;7.00;;
75044;SDS011;63614;56.026;35.960;2022-11-20T16:18:16;11.80;;;6.75;;
75044;SDS011;63614;56.026;35.960;2022-11-20T16:20:44;10.45;;;6.43;;
75044;SDS011;63614;56.026;35.960;2022-11-20T16:23:11;12.95;;;6.68;;
75044;SDS011;63614;56.026;35.960;2022-11-20T16:25:37;16.92;;;10.70;;
75044;SDS011;63614;56.026;35.960;2022-11-20T16:28:04;14.05;;;8.55;;
75044;SDS011;63614;56.026;35.960;2022-11-20T16:30:31;12.15;;;6.88;;
75044;SDS011;63614;56.026;35.960;2022-11-20T16:32:58;9.98;;;6.18;;
75044;SDS011;63614;56.026;35.960;2022-11-20T16:35:28;14.93;;;7.13;;
75044;SDS011;63614;56.026;35.960;2022-11-20T16:37:55;10.63;;;7.15;;
75044;SDS011;63614;56.026;35.960;2022-11-20T16:40:23;10.55;;;6.60;;
75044;SDS011;63614;56.026;35.960;2022-11-20T16:42:49;9.27;;;6.32;;